createdAt,value
2022-12-01T00:00:38.602Z,3.09
2022-12-01T00:05:39.855Z,3.44
2022-12-01T00:10:41.064Z,3.25
2022-12-01T00:15:42.313Z,3.35
2022-12-01T00:20:43.590Z,3.21
2022-12-01T00:25:44.889Z,3.06
2022-12-01T00:30:46.231Z,3.10
2022-12-01T00:35:47.461Z,3.41
2022-12-01T00:40:48.754Z,3.52
2022-12-01T00:45:50.130Z,3.47
2022-12-01T00:50:51.409Z,3.34
2022-12-01T00:55:54.255Z,3.31
2022-12-01T01:00:55.504Z,3.06
2022-12-01T01:05:56.824Z,2.90
2022-12-01T01:10:58.061Z,2.92
2022-12-01T01:15:59.800Z,2.91
2022-12-01T01:21:01.044Z,2.78
2022-12-01T01:26:02.387Z,2.96
2022-12-01T01:31:03.649Z,2.90
2022-12-01T01:36:04.953Z,2.46
2022-12-01T01:41:06.225Z,2.44
2022-12-01T01:46:07.476Z,2.44
2022-12-01T01:51:09.087Z,2.46
2022-12-01T01:56:10.390Z,2.58
2022-12-01T02:01:11.681Z,2.54
2022-12-01T02:06:13.696Z,2.22
2022-12-01T02:11:14.904Z,2.39
2022-12-01T02:16:16.135Z,2.53
2022-12-01T02:21:17.488Z,2.82
2022-12-01T02:26:18.707Z,2.82
2022-12-01T02:31:20.021Z,2.80
2022-12-01T02:36:21.303Z,2.86
2022-12-01T02:41:23.110Z,2.85
2022-12-01T02:46:24.555Z,2.82
2022-12-01T02:51:25.824Z,2.75
2022-12-01T02:56:27.208Z,2.93
2022-12-01T03:01:28.547Z,2.67
2022-12-01T03:06:29.861Z,2.46
2022-12-01T03:11:31.126Z,2.14
2022-12-01T03:16:32.522Z,2.44
2022-12-01T03:21:33.864Z,2.52
2022-12-01T03:26:35.609Z,2.16
2022-12-01T03:31:37.731Z,2.25
2022-12-01T03:36:39.118Z,2.03
2022-12-01T03:41:40.364Z,2.25
2022-12-01T03:46:42.452Z,2.44
2022-12-01T03:51:43.826Z,2.60
2022-12-01T03:56:45.085Z,2.82
2022-12-01T04:01:46.422Z,2.89
2022-12-01T04:06:47.793Z,2.88
2022-12-01T04:12:07.720Z,2.77
2022-12-01T04:17:08.926Z,2.84
2022-12-01T04:22:10.212Z,2.77
2022-12-01T04:27:11.482Z,2.75
2022-12-01T04:32:13.446Z,2.55
2022-12-01T04:37:14.820Z,2.54
2022-12-01T04:42:16.030Z,2.63
2022-12-01T04:47:17.268Z,2.69
2022-12-01T04:52:18.483Z,2.55
2022-12-01T04:57:19.833Z,2.75
2022-12-01T05:02:21.061Z,2.65
2022-12-01T05:07:22.463Z,2.81
2022-12-01T05:12:23.802Z,2.93
2022-12-01T05:17:25.025Z,2.81
2022-12-01T05:22:42.825Z,2.85
2022-12-01T05:27:47.534Z,2.94
2022-12-01T05:32:48.760Z,2.85
2022-12-01T05:37:49.962Z,2.98
2022-12-01T05:42:51.179Z,2.53
2022-12-01T05:47:52.463Z,2.69
2022-12-01T05:52:53.712Z,2.64
2022-12-01T05:57:55.335Z,2.92
2022-12-01T06:02:56.590Z,2.58
2022-12-01T06:07:57.983Z,2.85
2022-12-01T06:12:59.407Z,2.74
2022-12-01T06:18:00.630Z,2.91
2022-12-01T06:23:01.904Z,2.72
2022-12-01T06:28:03.156Z,2.74
2022-12-01T06:33:04.389Z,2.76
2022-12-01T06:38:05.607Z,2.83
2022-12-01T06:43:06.856Z,2.65
2022-12-01T06:48:08.493Z,2.44
2022-12-01T06:53:10.726Z,2.63
2022-12-01T06:58:11.938Z,2.87
2022-12-01T07:03:13.340Z,2.93
2022-12-01T07:08:14.658Z,2.93
2022-12-01T07:13:15.949Z,2.85
2022-12-01T07:18:17.173Z,2.82
2022-12-01T07:23:18.384Z,2.95
2022-12-01T07:28:19.653Z,3.11
2022-12-01T07:33:20.924Z,3.19
2022-12-01T07:38:22.530Z,3.21
2022-12-01T07:43:23.785Z,2.93
2022-12-01T07:48:24.987Z,3.07
2022-12-01T07:53:26.253Z,2.71
2022-12-01T07:58:27.572Z,2.59
2022-12-01T08:03:28.966Z,2.97
2022-12-01T08:08:30.434Z,3.19
2022-12-01T08:13:31.739Z,2.94
2022-12-01T08:18:32.981Z,2.73
2022-12-01T08:23:34.289Z,3.00
2022-12-01T08:28:36.036Z,3.21
2022-12-01T08:33:37.252Z,2.94
2022-12-01T08:38:38.498Z,3.31
2022-12-01T08:43:57.148Z,3.32
2022-12-01T08:48:59.996Z,3.65
2022-12-01T08:54:01.393Z,3.64
2022-12-01T08:59:03.977Z,3.59
2022-12-01T09:04:06.005Z,3.59
2022-12-01T09:09:07.780Z,3.59
2022-12-01T09:14:09.018Z,3.83
2022-12-01T09:19:12.244Z,3.93
2022-12-01T09:24:14.591Z,4.04
2022-12-01T09:29:15.882Z,4.30
2022-12-01T09:34:17.128Z,4.57
2022-12-01T09:39:18.405Z,4.44
2022-12-01T09:44:21.866Z,4.79
2022-12-01T09:49:23.102Z,4.81
2022-12-01T09:54:24.336Z,4.88
2022-12-01T09:59:25.594Z,4.94
2022-12-01T10:04:26.858Z,5.17
2022-12-01T10:09:28.174Z,5.23
2022-12-01T10:14:29.406Z,5.36
2022-12-01T10:19:31.277Z,5.57
2022-12-01T10:24:32.508Z,5.56
2022-12-01T10:29:33.752Z,5.78
2022-12-01T10:34:35.106Z,6.14
2022-12-01T10:39:36.339Z,6.34
2022-12-01T10:44:37.778Z,6.28
2022-12-01T10:49:39.106Z,6.23
2022-12-01T10:54:40.388Z,6.06
2022-12-01T10:59:41.738Z,6.03
2022-12-01T11:04:45.505Z,5.97
2022-12-01T11:09:47.522Z,5.92
2022-12-01T11:14:49.441Z,5.53
2022-12-01T11:19:50.877Z,5.56
2022-12-01T11:24:52.325Z,5.82
2022-12-01T11:29:53.645Z,5.99
2022-12-01T11:34:55.018Z,5.67
2022-12-01T11:39:56.282Z,5.56
2022-12-01T11:44:57.575Z,5.79
2022-12-01T11:49:58.963Z,5.73
2022-12-01T11:55:01.497Z,4.94
2022-12-01T12:00:04.516Z,5.04
2022-12-01T12:05:05.809Z,5.49
2022-12-01T12:10:07.309Z,5.75
2022-12-01T12:15:08.579Z,5.87
2022-12-01T12:20:10.218Z,6.03
2022-12-01T12:25:11.745Z,6.03
2022-12-01T12:30:13.012Z,5.83
2022-12-01T12:35:16.280Z,5.87
2022-12-01T12:40:17.581Z,6.05
2022-12-01T12:45:18.842Z,5.96
2022-12-01T12:50:20.046Z,5.91
2022-12-01T12:55:21.292Z,6.05
2022-12-01T13:00:22.501Z,6.10
2022-12-01T13:05:23.748Z,6.24
2022-12-01T13:10:25.029Z,6.30
2022-12-01T13:15:26.352Z,6.04
2022-12-01T13:20:27.784Z,6.17
2022-12-01T13:25:29.098Z,6.31
2022-12-01T13:30:30.459Z,6.24
2022-12-01T13:35:31.739Z,6.25
2022-12-01T13:40:32.992Z,6.61
2022-12-01T13:45:34.235Z,6.68
2022-12-01T13:50:35.563Z,6.80
2022-12-01T13:55:36.799Z,6.68
2022-12-01T14:00:38.101Z,6.97
2022-12-01T14:05:39.418Z,6.70
2022-12-01T14:10:40.707Z,6.64
2022-12-01T14:15:42.903Z,6.65
2022-12-01T14:20:44.895Z,6.82
2022-12-01T14:25:46.130Z,6.93
2022-12-01T14:30:47.420Z,7.17
2022-12-01T14:35:48.692Z,7.09
2022-12-01T14:40:50.008Z,7.20
2022-12-01T14:45:51.278Z,7.12
2022-12-01T14:50:52.502Z,7.07
2022-12-01T14:55:53.802Z,7.05
2022-12-01T15:00:55.076Z,6.87
2022-12-01T15:05:56.343Z,6.28
2022-12-01T15:10:57.624Z,6.41
2022-12-01T15:15:58.941Z,6.66
2022-12-01T15:21:00.195Z,7.36
2022-12-01T15:26:01.480Z,6.83
2022-12-01T15:31:02.739Z,6.83
2022-12-01T15:36:04.000Z,6.95
2022-12-01T15:46:26.418Z,6.88
2022-12-01T15:51:27.761Z,6.70
2022-12-01T15:56:29.100Z,6.52
2022-12-01T16:01:30.482Z,6.61
2022-12-01T16:06:31.819Z,6.52
2022-12-01T16:11:33.184Z,6.46
2022-12-01T16:16:34.688Z,6.32
2022-12-01T16:21:36.090Z,6.47
2022-12-01T16:26:38.238Z,6.54
2022-12-01T16:31:58.635Z,6.70
2022-12-01T16:37:00.680Z,6.51
2022-12-01T16:42:02.090Z,6.64
2022-12-01T16:47:03.491Z,6.58
2022-12-01T16:52:15.996Z,6.47
2022-12-01T16:57:26.040Z,6.60
2022-12-01T17:02:27.335Z,6.42
2022-12-01T17:07:37.621Z,6.22
2022-12-01T17:12:39.007Z,6.32
2022-12-01T17:17:40.265Z,6.43
2022-12-01T17:22:41.477Z,6.40
2022-12-01T17:27:43.904Z,6.16
2022-12-01T17:32:46.608Z,5.97
2022-12-01T17:37:47.872Z,6.00
2022-12-01T17:42:51.051Z,5.89
2022-12-01T17:47:52.533Z,6.08
2022-12-01T17:52:53.782Z,6.13
2022-12-01T17:57:55.086Z,6.00
2022-12-01T18:02:56.387Z,6.26
2022-12-01T18:07:57.770Z,6.19
2022-12-01T18:12:59.092Z,5.60
2022-12-01T18:18:00.359Z,5.88
2022-12-01T18:23:01.633Z,5.75
2022-12-01T18:28:03.028Z,5.98
2022-12-01T18:33:04.370Z,6.04
2022-12-01T18:38:05.669Z,6.12
2022-12-01T18:43:06.954Z,6.05
2022-12-01T18:48:08.177Z,6.11
2022-12-01T18:53:09.408Z,6.11
2022-12-01T18:58:10.656Z,6.12
2022-12-01T19:03:12.008Z,5.94
2022-12-01T19:08:13.305Z,5.90
2022-12-01T19:13:14.645Z,6.06
2022-12-01T19:18:15.861Z,6.11
2022-12-01T19:23:17.124Z,6.01
2022-12-01T19:28:18.404Z,6.06
2022-12-01T19:33:19.806Z,6.21
2022-12-01T19:38:21.054Z,5.96
2022-12-01T19:43:22.429Z,6.16
2022-12-01T19:48:23.690Z,6.32
2022-12-01T19:53:27.914Z,6.34
2022-12-01T19:58:33.330Z,6.09
2022-12-01T20:03:34.585Z,5.88
2022-12-01T20:08:36.345Z,5.81
2022-12-01T20:13:37.745Z,6.01
2022-12-01T20:18:39.036Z,5.98
2022-12-01T20:23:40.282Z,6.03
2022-12-01T20:28:41.533Z,5.80
2022-12-01T20:33:42.732Z,5.71
2022-12-01T20:38:43.994Z,6.05
2022-12-01T20:43:45.261Z,5.90
2022-12-01T20:48:46.503Z,5.69
2022-12-01T20:54:12.374Z,6.00
2022-12-01T20:59:09.005Z,6.02
2022-12-01T21:04:10.251Z,5.75
2022-12-01T21:09:13.022Z,5.72
2022-12-01T21:14:14.297Z,5.83
2022-12-01T21:19:15.861Z,5.66
2022-12-01T21:24:18.611Z,5.69
2022-12-01T21:29:19.949Z,5.51
2022-12-01T21:34:21.954Z,5.47
2022-12-01T21:39:27.894Z,5.53
2022-12-01T21:44:34.885Z,5.55
2022-12-01T21:49:36.286Z,5.23
2022-12-01T21:54:37.537Z,5.34
2022-12-01T21:59:38.790Z,5.27
2022-12-01T22:04:40.033Z,5.07
2022-12-01T22:09:41.278Z,4.90
2022-12-01T22:14:42.594Z,5.05
2022-12-01T22:19:44.825Z,4.90
2022-12-01T22:24:46.230Z,4.73
2022-12-01T22:29:47.598Z,4.95
2022-12-01T22:34:49.340Z,5.23
2022-12-01T22:39:50.835Z,5.13
2022-12-01T22:44:52.361Z,4.84
2022-12-01T22:49:53.705Z,4.63
2022-12-01T22:54:54.922Z,4.63
2022-12-01T22:59:56.226Z,4.88
2022-12-01T23:04:57.592Z,4.37
2022-12-01T23:09:58.853Z,4.52
2022-12-01T23:15:00.183Z,4.71
2022-12-01T23:20:01.499Z,4.49
2022-12-01T23:25:02.818Z,4.21
2022-12-01T23:30:04.093Z,4.83
2022-12-01T23:35:05.381Z,4.85
2022-12-01T23:40:06.677Z,4.54
2022-12-01T23:45:07.927Z,4.73
2022-12-01T23:50:09.153Z,4.71
2022-12-01T23:55:10.416Z,4.83
